sensor_id;sensor_type;location;lat;lon;timestamp;P1;durP1;ratioP1;P2;durP2;ratioP2
8050;SDS011;4068;42.158;24.732;2022-07-22T00:00:54;8.32;;;5.10;;
8050;SDS011;4068;42.158;24.732;2022-07-22T00:03:20;6.82;;;4.93;;
8050;SDS011;4068;42.158;24.732;2022-07-22T00:05:45;7.68;;;4.88;;
8050;SDS011;4068;42.158;24.732;2022-07-22T00:08:11;8.80;;;5.60;;
8050;SDS011;4068;42.158;24.732;2022-07-22T00:10:37;7.40;;;5.50;;
8050;SDS011;4068;42.158;24.732;2022-07-22T00:13:02;11.30;;;5.32;;
8050;SDS011;4068;42.158;24.732;2022-07-22T00:15:28;7.07;;;5.20;;
8050;SDS011;4068;42.158;24.732;2022-07-22T00:17:53;9.60;;;5.43;;
8050;SDS011;4068;42.158;24.732;2022-07-22T00:20:19;6.72;;;5.40;;
8050;SDS011;4068;42.158;24.732;2022-07-22T00:22:45;5.70;;;4.72;;
8050;SDS011;4068;42.158;24.732;2022-07-22T00:25:10;7.72;;;5.05;;
8050;SDS011;4068;42.158;24.732;2022-07-22T00:27:35;8.43;;;5.63;;
8050;SDS011;4068;42.158;24.732;2022-07-22T00:30:01;8.90;;;5.70;;
8050;SDS011;4068;42.158;24.732;2022-07-22T00:32:27;12.18;;;5.32;;
8050;SDS011;4068;42.158;24.732;2022-07-22T00:34:52;5.68;;;4.72;;
8050;SDS011;4068;42.158;24.732;2022-07-22T00:37:17;6.35;;;5.05;;
8050;SDS011;4068;42.158;24.732;2022-07-22T00:39:43;9.65;;;5.03;;
8050;SDS011;4068;42.158;24.732;2022-07-22T00:42:08;7.70;;;5.47;;
8050;SDS011;4068;42.158;24.732;2022-07-22T00:44:34;9.48;;;5.28;;
8050;SDS011;4068;42.158;24.732;2022-07-22T00:46:59;10.50;;;5.22;;
8050;SDS011;4068;42.158;24.732;2022-07-22T00:49:25;9.40;;;4.68;;
8050;SDS011;4068;42.158;24.732;2022-07-22T00:51:51;9.95;;;5.72;;
8050;SDS011;4068;42.158;24.732;2022-07-22T00:54:16;6.63;;;5.10;;
8050;SDS011;4068;42.158;24.732;2022-07-22T00:56:42;29.13;;;8.40;;
8050;SDS011;4068;42.158;24.732;2022-07-22T00:59:09;15.73;;;5.88;;
8050;SDS011;4068;42.158;24.732;2022-07-22T01:01:35;11.80;;;6.18;;
8050;SDS011;4068;42.158;24.732;2022-07-22T01:04:01;5.97;;;5.13;;
8050;SDS011;4068;42.158;24.732;2022-07-22T01:06:28;8.32;;;5.32;;
8050;SDS011;4068;42.158;24.732;2022-07-22T01:08:54;7.95;;;5.57;;
8050;SDS011;4068;42.158;24.732;2022-07-22T01:11:20;11.35;;;5.57;;
8050;SDS011;4068;42.158;24.732;2022-07-22T01:13:46;11.25;;;5.72;;
8050;SDS011;4068;42.158;24.732;2022-07-22T01:16:12;8.00;;;5.97;;
8050;SDS011;4068;42.158;24.732;2022-07-22T01:18:39;7.32;;;5.25;;
8050;SDS011;4068;42.158;24.732;2022-07-22T01:21:05;15.23;;;6.15;;
8050;SDS011;4068;42.158;24.732;2022-07-22T01:23:33;8.88;;;5.30;;
8050;SDS011;4068;42.158;24.732;2022-07-22T01:25:59;8.85;;;5.57;;
8050;SDS011;4068;42.158;24.732;2022-07-22T01:28:24;9.63;;;5.38;;
8050;SDS011;4068;42.158;24.732;2022-07-22T01:30:50;7.57;;;5.40;;
8050;SDS011;4068;42.158;24.732;2022-07-22T01:33:20;12.10;;;5.75;;
8050;SDS011;4068;42.158;24.732;2022-07-22T01:36:04;11.98;;;5.78;;
8050;SDS011;4068;42.158;24.732;2022-07-22T01:38:31;10.93;;;5.53;;
8050;SDS011;4068;42.158;24.732;2022-07-22T01:40:56;8.27;;;5.97;;
8050;SDS011;4068;42.158;24.732;2022-07-22T01:43:22;12.85;;;6.15;;
8050;SDS011;4068;42.158;24.732;2022-07-22T01:45:48;8.60;;;5.45;;
8050;SDS011;4068;42.158;24.732;2022-07-22T01:48:16;13.45;;;5.75;;
8050;SDS011;4068;42.158;24.732;2022-07-22T01:50:41;9.13;;;6.25;;
8050;SDS011;4068;42.158;24.732;2022-07-22T01:53:07;15.25;;;5.65;;
8050;SDS011;4068;42.158;24.732;2022-07-22T01:55:33;9.95;;;6.13;;
8050;SDS011;4068;42.158;24.732;2022-07-22T01:57:59;10.18;;;5.93;;
8050;SDS011;4068;42.158;24.732;2022-07-22T02:00:24;16.30;;;7.00;;
8050;SDS011;4068;42.158;24.732;2022-07-22T02:02:50;9.10;;;6.10;;
8050;SDS011;4068;42.158;24.732;2022-07-22T02:05:15;9.27;;;6.22;;
8050;SDS011;4068;42.158;24.732;2022-07-22T02:07:41;7.22;;;6.07;;
8050;SDS011;4068;42.158;24.732;2022-07-22T02:10:07;7.10;;;6.15;;
8050;SDS011;4068;42.158;24.732;2022-07-22T02:12:33;14.45;;;5.90;;
8050;SDS011;4068;42.158;24.732;2022-07-22T02:14:58;12.07;;;6.78;;
8050;SDS011;4068;42.158;24.732;2022-07-22T02:17:24;10.75;;;6.18;;
8050;SDS011;4068;42.158;24.732;2022-07-22T02:19:50;9.68;;;6.85;;
8050;SDS011;4068;42.158;24.732;2022-07-22T02:22:15;9.68;;;6.22;;
8050;SDS011;4068;42.158;24.732;2022-07-22T02:24:41;10.85;;;6.30;;
8050;SDS011;4068;42.158;24.732;2022-07-22T02:27:06;12.38;;;6.78;;
8050;SDS011;4068;42.158;24.732;2022-07-22T02:29:32;9.25;;;6.70;;
8050;SDS011;4068;42.158;24.732;2022-07-22T02:31:58;11.63;;;6.65;;
8050;SDS011;4068;42.158;24.732;2022-07-22T02:34:23;8.68;;;6.28;;
8050;SDS011;4068;42.158;24.732;2022-07-22T02:36:48;8.10;;;6.18;;
8050;SDS011;4068;42.158;24.732;2022-07-22T02:39:14;9.55;;;6.93;;
8050;SDS011;4068;42.158;24.732;2022-07-22T02:41:39;15.52;;;6.78;;
8050;SDS011;4068;42.158;24.732;2022-07-22T02:44:05;15.43;;;7.00;;
8050;SDS011;4068;42.158;24.732;2022-07-22T02:46:30;9.45;;;7.70;;
8050;SDS011;4068;42.158;24.732;2022-07-22T02:48:56;13.13;;;7.88;;
8050;SDS011;4068;42.158;24.732;2022-07-22T02:51:22;13.63;;;8.60;;
8050;SDS011;4068;42.158;24.732;2022-07-22T02:53:48;15.73;;;10.13;;
8050;SDS011;4068;42.158;24.732;2022-07-22T02:56:14;11.25;;;8.82;;
8050;SDS011;4068;42.158;24.732;2022-07-22T02:58:40;12.82;;;10.15;;
8050;SDS011;4068;42.158;24.732;2022-07-22T03:01:06;12.73;;;10.45;;
8050;SDS011;4068;42.158;24.732;2022-07-22T03:03:31;24.95;;;20.27;;
8050;SDS011;4068;42.158;24.732;2022-07-22T03:05:57;53.70;;;36.60;;
8050;SDS011;4068;42.158;24.732;2022-07-22T03:08:22;54.55;;;35.22;;
8050;SDS011;4068;42.158;24.732;2022-07-22T03:10:48;40.95;;;25.98;;
8050;SDS011;4068;42.158;24.732;2022-07-22T03:13:13;37.97;;;21.02;;
8050;SDS011;4068;42.158;24.732;2022-07-22T03:15:39;33.90;;;23.02;;
8050;SDS011;4068;42.158;24.732;2022-07-22T03:18:04;19.65;;;11.57;;
8050;SDS011;4068;42.158;24.732;2022-07-22T03:20:30;16.30;;;11.23;;
8050;SDS011;4068;42.158;24.732;2022-07-22T03:22:55;11.75;;;9.25;;
8050;SDS011;4068;42.158;24.732;2022-07-22T03:25:20;13.60;;;10.10;;
8050;SDS011;4068;42.158;24.732;2022-07-22T03:27:46;13.93;;;9.20;;
8050;SDS011;4068;42.158;24.732;2022-07-22T03:30:11;16.58;;;9.32;;
8050;SDS011;4068;42.158;24.732;2022-07-22T03:32:37;18.65;;;9.15;;
8050;SDS011;4068;42.158;24.732;2022-07-22T03:35:02;16.92;;;9.75;;
8050;SDS011;4068;42.158;24.732;2022-07-22T03:37:28;14.27;;;9.55;;
8050;SDS011;4068;42.158;24.732;2022-07-22T03:39:54;13.88;;;9.73;;
8050;SDS011;4068;42.158;24.732;2022-07-22T03:42:19;12.68;;;8.63;;
8050;SDS011;4068;42.158;24.732;2022-07-22T03:44:45;16.67;;;9.43;;
8050;SDS011;4068;42.158;24.732;2022-07-22T03:47:11;16.45;;;8.95;;
8050;SDS011;4068;42.158;24.732;2022-07-22T03:49:41;21.65;;;9.38;;
8050;SDS011;4068;42.158;24.732;2022-07-22T03:52:07;18.15;;;9.57;;
8050;SDS011;4068;42.158;24.732;2022-07-22T03:54:32;11.00;;;9.00;;
8050;SDS011;4068;42.158;24.732;2022-07-22T03:56:58;17.17;;;9.23;;
8050;SDS011;4068;42.158;24.732;2022-07-22T03:59:23;18.80;;;9.43;;
8050;SDS011;4068;42.158;24.732;2022-07-22T04:01:48;18.02;;;9.35;;
8050;SDS011;4068;42.158;24.732;2022-07-22T04:04:14;19.33;;;10.85;;
8050;SDS011;4068;42.158;24.732;2022-07-22T04:06:39;15.10;;;8.57;;
8050;SDS011;4068;42.158;24.732;2022-07-22T04:09:05;17.52;;;10.27;;
8050;SDS011;4068;42.158;24.732;2022-07-22T04:11:30;15.07;;;8.73;;
8050;SDS011;4068;42.158;24.732;2022-07-22T04:13:55;12.90;;;9.50;;
8050;SDS011;4068;42.158;24.732;2022-07-22T04:16:21;19.52;;;10.13;;
8050;SDS011;4068;42.158;24.732;2022-07-22T04:18:46;20.13;;;10.60;;
8050;SDS011;4068;42.158;24.732;2022-07-22T04:21:12;20.15;;;10.70;;
8050;SDS011;4068;42.158;24.732;2022-07-22T04:23:37;24.95;;;11.45;;
8050;SDS011;4068;42.158;24.732;2022-07-22T04:26:04;19.50;;;11.25;;
8050;SDS011;4068;42.158;24.732;2022-07-22T04:28:32;24.30;;;12.55;;
8050;SDS011;4068;42.158;24.732;2022-07-22T04:30:59;23.10;;;12.90;;
8050;SDS011;4068;42.158;24.732;2022-07-22T04:33:24;23.25;;;14.02;;
8050;SDS011;4068;42.158;24.732;2022-07-22T04:35:49;22.02;;;12.05;;
8050;SDS011;4068;42.158;24.732;2022-07-22T04:38:18;23.15;;;13.07;;
8050;SDS011;4068;42.158;24.732;2022-07-22T04:40:43;17.25;;;11.88;;
8050;SDS011;4068;42.158;24.732;2022-07-22T04:43:09;20.20;;;11.85;;
8050;SDS011;4068;42.158;24.732;2022-07-22T04:45:34;17.63;;;13.18;;
8050;SDS011;4068;42.158;24.732;2022-07-22T04:47:59;23.05;;;13.52;;
8050;SDS011;4068;42.158;24.732;2022-07-22T04:50:25;16.10;;;11.75;;
8050;SDS011;4068;42.158;24.732;2022-07-22T04:52:50;18.88;;;12.57;;
8050;SDS011;4068;42.158;24.732;2022-07-22T04:55:16;24.45;;;13.10;;
8050;SDS011;4068;42.158;24.732;2022-07-22T04:57:41;18.00;;;11.07;;
8050;SDS011;4068;42.158;24.732;2022-07-22T05:00:07;23.23;;;12.75;;
8050;SDS011;4068;42.158;24.732;2022-07-22T05:02:32;23.63;;;12.32;;
8050;SDS011;4068;42.158;24.732;2022-07-22T05:04:58;21.58;;;12.38;;
8050;SDS011;4068;42.158;24.732;2022-07-22T05:07:23;17.92;;;12.20;;
8050;SDS011;4068;42.158;24.732;2022-07-22T05:09:49;24.85;;;12.93;;
8050;SDS011;4068;42.158;24.732;2022-07-22T05:12:14;21.85;;;12.23;;
8050;SDS011;4068;42.158;24.732;2022-07-22T05:14:40;28.20;;;11.98;;
8050;SDS011;4068;42.158;24.732;2022-07-22T05:17:08;23.30;;;13.15;;
8050;SDS011;4068;42.158;24.732;2022-07-22T05:19:40;28.25;;;14.00;;
8050;SDS011;4068;42.158;24.732;2022-07-22T05:22:06;23.45;;;13.15;;
8050;SDS011;4068;42.158;24.732;2022-07-22T05:24:32;20.13;;;12.52;;
8050;SDS011;4068;42.158;24.732;2022-07-22T05:26:58;23.77;;;12.63;;
8050;SDS011;4068;42.158;24.732;2022-07-22T05:29:23;22.38;;;12.93;;
8050;SDS011;4068;42.158;24.732;2022-07-22T05:31:48;24.85;;;13.60;;
8050;SDS011;4068;42.158;24.732;2022-07-22T05:34:14;16.65;;;12.70;;
8050;SDS011;4068;42.158;24.732;2022-07-22T05:36:39;22.55;;;13.38;;
8050;SDS011;4068;42.158;24.732;2022-07-22T05:39:06;23.88;;;14.48;;
8050;SDS011;4068;42.158;24.732;2022-07-22T05:41:31;31.23;;;14.13;;
8050;SDS011;4068;42.158;24.732;2022-07-22T05:43:57;25.55;;;12.85;;
8050;SDS011;4068;42.158;24.732;2022-07-22T05:46:23;22.13;;;13.30;;
8050;SDS011;4068;42.158;24.732;2022-07-22T05:48:49;22.80;;;13.13;;
8050;SDS011;4068;42.158;24.732;2022-07-22T05:51:14;28.40;;;13.00;;
8050;SDS011;4068;42.158;24.732;2022-07-22T05:53:40;20.33;;;12.45;;
8050;SDS011;4068;42.158;24.732;2022-07-22T05:56:07;25.98;;;13.07;;
8050;SDS011;4068;42.158;24.732;2022-07-22T05:58:34;18.65;;;11.93;;
8050;SDS011;4068;42.158;24.732;2022-07-22T06:00:59;25.45;;;12.65;;
8050;SDS011;4068;42.158;24.732;2022-07-22T06:03:25;17.85;;;11.73;;
8050;SDS011;4068;42.158;24.732;2022-07-22T06:05:50;25.33;;;12.82;;
8050;SDS011;4068;42.158;24.732;2022-07-22T06:08:16;22.10;;;12.18;;
8050;SDS011;4068;42.158;24.732;2022-07-22T06:10:42;17.83;;;11.13;;
8050;SDS011;4068;42.158;24.732;2022-07-22T06:13:07;20.77;;;12.27;;
8050;SDS011;4068;42.158;24.732;2022-07-22T06:15:33;20.20;;;11.98;;
8050;SDS011;4068;42.158;24.732;2022-07-22T06:17:58;22.05;;;11.82;;
8050;SDS011;4068;42.158;24.732;2022-07-22T06:20:24;19.33;;;11.20;;
8050;SDS011;4068;42.158;24.732;2022-07-22T06:22:49;19.52;;;10.90;;
8050;SDS011;4068;42.158;24.732;2022-07-22T06:25:14;21.77;;;10.65;;
8050;SDS011;4068;42.158;24.732;2022-07-22T06:27:40;18.15;;;11.23;;
8050;SDS011;4068;42.158;24.732;2022-07-22T06:30:05;15.18;;;10.48;;
8050;SDS011;4068;42.158;24.732;2022-07-22T06:32:31;16.90;;;10.95;;
8050;SDS011;4068;42.158;24.732;2022-07-22T06:34:57;16.55;;;9.75;;
8050;SDS011;4068;42.158;24.732;2022-07-22T06:37:22;15.05;;;10.43;;
8050;SDS011;4068;42.158;24.732;2022-07-22T06:39:48;20.70;;;10.55;;
8050;SDS011;4068;42.158;24.732;2022-07-22T06:42:13;12.93;;;9.75;;
8050;SDS011;4068;42.158;24.732;2022-07-22T06:44:39;15.75;;;9.10;;
8050;SDS011;4068;42.158;24.732;2022-07-22T06:47:04;14.20;;;9.43;;
8050;SDS011;4068;42.158;24.732;2022-07-22T06:49:30;16.73;;;8.75;;
8050;SDS011;4068;42.158;24.732;2022-07-22T06:51:55;11.88;;;9.68;;
8050;SDS011;4068;42.158;24.732;2022-07-22T06:54:21;12.73;;;9.02;;
8050;SDS011;4068;42.158;24.732;2022-07-22T06:56:46;13.75;;;9.45;;
8050;SDS011;4068;42.158;24.732;2022-07-22T06:59:11;14.25;;;8.77;;
8050;SDS011;4068;42.158;24.732;2022-07-22T07:01:37;13.27;;;8.52;;
8050;SDS011;4068;42.158;24.732;2022-07-22T07:04:03;15.32;;;8.60;;
8050;SDS011;4068;42.158;24.732;2022-07-22T07:06:28;12.57;;;7.60;;
8050;SDS011;4068;42.158;24.732;2022-07-22T07:08:54;10.75;;;7.63;;
8050;SDS011;4068;42.158;24.732;2022-07-22T07:11:19;11.57;;;7.00;;
8050;SDS011;4068;42.158;24.732;2022-07-22T07:13:45;8.75;;;5.90;;
8050;SDS011;4068;42.158;24.732;2022-07-22T07:16:10;10.93;;;5.93;;
8050;SDS011;4068;42.158;24.732;2022-07-22T07:18:35;8.07;;;6.53;;
8050;SDS011;4068;42.158;24.732;2022-07-22T07:21:02;8.50;;;7.53;;
8050;SDS011;4068;42.158;24.732;2022-07-22T07:23:28;8.63;;;6.30;;
8050;SDS011;4068;42.158;24.732;2022-07-22T07:25:54;13.00;;;7.05;;
8050;SDS011;4068;42.158;24.732;2022-07-22T07:28:20;13.68;;;7.38;;
8050;SDS011;4068;42.158;24.732;2022-07-22T07:30:45;9.63;;;6.43;;
8050;SDS011;4068;42.158;24.732;2022-07-22T07:33:11;8.27;;;6.93;;
8050;SDS011;4068;42.158;24.732;2022-07-22T07:35:36;9.60;;;7.00;;
8050;SDS011;4068;42.158;24.732;2022-07-22T07:38:02;10.85;;;7.63;;
8050;SDS011;4068;42.158;24.732;2022-07-22T07:40:27;12.68;;;7.90;;
8050;SDS011;4068;42.158;24.732;2022-07-22T07:42:53;10.95;;;8.27;;
8050;SDS011;4068;42.158;24.732;2022-07-22T07:45:18;11.57;;;7.15;;
8050;SDS011;4068;42.158;24.732;2022-07-22T07:47:44;16.13;;;8.18;;
8050;SDS011;4068;42.158;24.732;2022-07-22T07:50:09;9.70;;;8.35;;
8050;SDS011;4068;42.158;24.732;2022-07-22T07:52:39;12.40;;;7.93;;
8050;SDS011;4068;42.158;24.732;2022-07-22T07:55:06;11.82;;;8.00;;
8050;SDS011;4068;42.158;24.732;2022-07-22T07:57:32;16.95;;;8.20;;
8050;SDS011;4068;42.158;24.732;2022-07-22T07:59:58;14.88;;;7.95;;
8050;SDS011;4068;42.158;24.732;2022-07-22T08:02:23;11.50;;;8.35;;
8050;SDS011;4068;42.158;24.732;2022-07-22T08:04:49;12.93;;;7.72;;
8050;SDS011;4068;42.158;24.732;2022-07-22T08:07:14;12.65;;;8.13;;
8050;SDS011;4068;42.158;24.732;2022-07-22T08:09:40;12.25;;;8.10;;
8050;SDS011;4068;42.158;24.732;2022-07-22T08:12:05;14.07;;;8.27;;
8050;SDS011;4068;42.158;24.732;2022-07-22T08:14:31;20.40;;;8.68;;
8050;SDS011;4068;42.158;24.732;2022-07-22T08:16:57;12.95;;;8.93;;
8050;SDS011;4068;42.158;24.732;2022-07-22T08:19:23;15.18;;;9.13;;
8050;SDS011;4068;42.158;24.732;2022-07-22T08:21:48;13.40;;;9.02;;
8050;SDS011;4068;42.158;24.732;2022-07-22T08:24:13;16.85;;;10.10;;
8050;SDS011;4068;42.158;24.732;2022-07-22T08:26:39;14.77;;;8.60;;
8050;SDS011;4068;42.158;24.732;2022-07-22T08:29:05;16.00;;;9.50;;
8050;SDS011;4068;42.158;24.732;2022-07-22T08:31:34;15.18;;;9.27;;
8050;SDS011;4068;42.158;24.732;2022-07-22T08:34:01;15.13;;;9.30;;
8050;SDS011;4068;42.158;24.732;2022-07-22T08:36:27;12.85;;;9.15;;
8050;SDS011;4068;42.158;24.732;2022-07-22T08:38:53;10.15;;;8.07;;
8050;SDS011;4068;42.158;24.732;2022-07-22T08:41:19;14.43;;;7.75;;
8050;SDS011;4068;42.158;24.732;2022-07-22T08:43:48;11.70;;;7.57;;
8050;SDS011;4068;42.158;24.732;2022-07-22T08:46:14;14.23;;;7.57;;
8050;SDS011;4068;42.158;24.732;2022-07-22T08:48:40;13.50;;;7.60;;
8050;SDS011;4068;42.158;24.732;2022-07-22T08:51:06;11.57;;;8.02;;
8050;SDS011;4068;42.158;24.732;2022-07-22T08:53:32;15.38;;;8.32;;
8050;SDS011;4068;42.158;24.732;2022-07-22T08:55:58;13.00;;;7.65;;
8050;SDS011;4068;42.158;24.732;2022-07-22T08:58:24;14.45;;;8.10;;
8050;SDS011;4068;42.158;24.732;2022-07-22T09:01:10;10.13;;;7.93;;
8050;SDS011;4068;42.158;24.732;2022-07-22T09:03:47;9.65;;;7.25;;
8050;SDS011;4068;42.158;24.732;2022-07-22T09:06:18;16.80;;;8.73;;
8050;SDS011;4068;42.158;24.732;2022-07-22T09:09:05;13.05;;;8.43;;
8050;SDS011;4068;42.158;24.732;2022-07-22T09:11:31;14.35;;;8.48;;
8050;SDS011;4068;42.158;24.732;2022-07-22T09:14:00;14.57;;;8.43;;
8050;SDS011;4068;42.158;24.732;2022-07-22T09:16:45;14.13;;;8.88;;
8050;SDS011;4068;42.158;24.732;2022-07-22T09:19:12;14.52;;;9.25;;
8050;SDS011;4068;42.158;24.732;2022-07-22T09:21:39;14.45;;;9.73;;
8050;SDS011;4068;42.158;24.732;2022-07-22T09:24:25;15.90;;;10.27;;
8050;SDS011;4068;42.158;24.732;2022-07-22T09:26:55;17.77;;;10.60;;
8050;SDS011;4068;42.158;24.732;2022-07-22T09:29:21;14.15;;;9.40;;
8050;SDS011;4068;42.158;24.732;2022-07-22T09:31:49;11.02;;;8.98;;
8050;SDS011;4068;42.158;24.732;2022-07-22T09:34:27;11.30;;;9.02;;
8050;SDS011;4068;42.158;24.732;2022-07-22T09:36:55;15.13;;;9.65;;
8050;SDS011;4068;42.158;24.732;2022-07-22T09:39:25;13.82;;;8.82;;
8050;SDS011;4068;42.158;24.732;2022-07-22T09:42:02;12.70;;;8.63;;
8050;SDS011;4068;42.158;24.732;2022-07-22T09:44:31;16.70;;;10.98;;
8050;SDS011;4068;42.158;24.732;2022-07-22T09:46:57;17.23;;;10.65;;
8050;SDS011;4068;42.158;24.732;2022-07-22T09:49:29;13.43;;;10.13;;
8050;SDS011;4068;42.158;24.732;2022-07-22T09:51:55;18.52;;;10.20;;
8050;SDS011;4068;42.158;24.732;2022-07-22T09:54:22;19.83;;;11.43;;
8050;SDS011;4068;42.158;24.732;2022-07-22T09:56:47;27.58;;;11.18;;
8050;SDS011;4068;42.158;24.732;2022-07-22T09:59:13;14.93;;;10.77;;
8050;SDS011;4068;42.158;24.732;2022-07-22T10:01:38;17.38;;;11.32;;
8050;SDS011;4068;42.158;24.732;2022-07-22T10:04:05;17.23;;;10.68;;
8050;SDS011;4068;42.158;24.732;2022-07-22T10:06:31;18.25;;;11.63;;
8050;SDS011;4068;42.158;24.732;2022-07-22T10:08:57;17.60;;;11.18;;
8050;SDS011;4068;42.158;24.732;2022-07-22T10:11:24;20.13;;;12.68;;
8050;SDS011;4068;42.158;24.732;2022-07-22T10:13:49;20.45;;;10.63;;
8050;SDS011;4068;42.158;24.732;2022-07-22T10:16:15;18.55;;;11.27;;
8050;SDS011;4068;42.158;24.732;2022-07-22T10:18:45;21.85;;;12.55;;
8050;SDS011;4068;42.158;24.732;2022-07-22T10:21:11;19.00;;;12.98;;
8050;SDS011;4068;42.158;24.732;2022-07-22T10:26:46;24.75;;;12.05;;
8050;SDS011;4068;42.158;24.732;2022-07-22T10:34:42;19.42;;;12.70;;
8050;SDS011;4068;42.158;24.732;2022-07-22T10:48:01;22.55;;;10.85;;
8050;SDS011;4068;42.158;24.732;2022-07-22T10:53:00;16.20;;;11.45;;
8050;SDS011;4068;42.158;24.732;2022-07-22T10:55:26;16.90;;;11.77;;
8050;SDS011;4068;42.158;24.732;2022-07-22T10:57:52;18.83;;;11.30;;
8050;SDS011;4068;42.158;24.732;2022-07-22T11:00:17;22.55;;;11.07;;
8050;SDS011;4068;42.158;24.732;2022-07-22T11:02:43;13.52;;;10.25;;
8050;SDS011;4068;42.158;24.732;2022-07-22T11:05:08;12.93;;;9.82;;
8050;SDS011;4068;42.158;24.732;2022-07-22T11:07:40;11.93;;;8.73;;
8050;SDS011;4068;42.158;24.732;2022-07-22T11:12:34;12.38;;;9.20;;
8050;SDS011;4068;42.158;24.732;2022-07-22T11:15:00;14.45;;;8.48;;
8050;SDS011;4068;42.158;24.732;2022-07-22T11:17:26;12.25;;;7.68;;
8050;SDS011;4068;42.158;24.732;2022-07-22T11:19:51;12.63;;;7.40;;
8050;SDS011;4068;42.158;24.732;2022-07-22T11:22:17;8.40;;;6.78;;
8050;SDS011;4068;42.158;24.732;2022-07-22T11:24:43;11.75;;;6.50;;
8050;SDS011;4068;42.158;24.732;2022-07-22T11:27:15;8.02;;;6.95;;
8050;SDS011;4068;42.158;24.732;2022-07-22T11:29:42;9.93;;;6.38;;
8050;SDS011;4068;42.158;24.732;2022-07-22T11:32:11;12.77;;;6.60;;
8050;SDS011;4068;42.158;24.732;2022-07-22T11:34:38;10.80;;;6.80;;
8050;SDS011;4068;42.158;24.732;2022-07-22T11:37:07;8.52;;;6.50;;
8050;SDS011;4068;42.158;24.732;2022-07-22T11:39:33;9.68;;;7.32;;
8050;SDS011;4068;42.158;24.732;2022-07-22T11:42:00;10.32;;;6.97;;
8050;SDS011;4068;42.158;24.732;2022-07-22T11:44:27;9.32;;;6.05;;
8050;SDS011;4068;42.158;24.732;2022-07-22T11:46:55;12.55;;;6.47;;
8050;SDS011;4068;42.158;24.732;2022-07-22T11:49:23;10.43;;;5.88;;
8050;SDS011;4068;42.158;24.732;2022-07-22T11:51:50;7.75;;;5.70;;
8050;SDS011;4068;42.158;24.732;2022-07-22T11:54:16;16.50;;;5.75;;
8050;SDS011;4068;42.158;24.732;2022-07-22T11:56:41;7.78;;;5.75;;
8050;SDS011;4068;42.158;24.732;2022-07-22T11:59:07;10.57;;;6.18;;
8050;SDS011;4068;42.158;24.732;2022-07-22T12:01:37;8.93;;;6.40;;
8050;SDS011;4068;42.158;24.732;2022-07-22T12:04:04;10.77;;;5.72;;
8050;SDS011;4068;42.158;24.732;2022-07-22T12:06:32;9.38;;;5.75;;
8050;SDS011;4068;42.158;24.732;2022-07-22T12:09:12;8.65;;;6.25;;
8050;SDS011;4068;42.158;24.732;2022-07-22T12:11:43;7.97;;;5.32;;
8050;SDS011;4068;42.158;24.732;2022-07-22T12:16:37;6.75;;;5.60;;
8050;SDS011;4068;42.158;24.732;2022-07-22T12:19:12;6.57;;;5.05;;
8050;SDS011;4068;42.158;24.732;2022-07-22T12:21:51;5.30;;;4.80;;
8050;SDS011;4068;42.158;24.732;2022-07-22T12:24:32;9.10;;;4.63;;
8050;SDS011;4068;42.158;24.732;2022-07-22T12:27:03;8.45;;;4.35;;
8050;SDS011;4068;42.158;24.732;2022-07-22T12:37:00;7.25;;;4.95;;
8050;SDS011;4068;42.158;24.732;2022-07-22T12:39:36;8.60;;;4.22;;
8050;SDS011;4068;42.158;24.732;2022-07-22T12:42:02;6.20;;;3.90;;
8050;SDS011;4068;42.158;24.732;2022-07-22T12:44:27;7.22;;;4.32;;
8050;SDS011;4068;42.158;24.732;2022-07-22T12:46:54;4.97;;;4.20;;
8050;SDS011;4068;42.158;24.732;2022-07-22T12:49:24;5.18;;;3.63;;
8050;SDS011;4068;42.158;24.732;2022-07-22T12:54:36;4.80;;;3.92;;
8050;SDS011;4068;42.158;24.732;2022-07-22T12:57:03;5.03;;;4.40;;
8050;SDS011;4068;42.158;24.732;2022-07-22T12:59:29;11.15;;;4.10;;
8050;SDS011;4068;42.158;24.732;2022-07-22T13:01:55;5.38;;;4.30;;
8050;SDS011;4068;42.158;24.732;2022-07-22T13:04:20;7.43;;;4.65;;
8050;SDS011;4068;42.158;24.732;2022-07-22T13:06:46;6.47;;;3.90;;
8050;SDS011;4068;42.158;24.732;2022-07-22T13:09:11;5.90;;;4.55;;
8050;SDS011;4068;42.158;24.732;2022-07-22T13:11:37;4.65;;;4.05;;
8050;SDS011;4068;42.158;24.732;2022-07-22T13:14:08;5.57;;;4.25;;
8050;SDS011;4068;42.158;24.732;2022-07-22T13:16:34;5.38;;;3.97;;
8050;SDS011;4068;42.158;24.732;2022-07-22T13:19:00;7.53;;;4.60;;
8050;SDS011;4068;42.158;24.732;2022-07-22T13:21:25;6.45;;;4.25;;
8050;SDS011;4068;42.158;24.732;2022-07-22T13:23:50;14.70;;;4.32;;
8050;SDS011;4068;42.158;24.732;2022-07-22T13:26:16;7.57;;;4.80;;
8050;SDS011;4068;42.158;24.732;2022-07-22T13:28:41;8.48;;;3.90;;
8050;SDS011;4068;42.158;24.732;2022-07-22T13:31:07;5.72;;;3.55;;
8050;SDS011;4068;42.158;24.732;2022-07-22T13:33:33;5.13;;;3.70;;
8050;SDS011;4068;42.158;24.732;2022-07-22T13:35:59;12.23;;;5.10;;
8050;SDS011;4068;42.158;24.732;2022-07-22T13:38:24;7.28;;;4.22;;
8050;SDS011;4068;42.158;24.732;2022-07-22T13:40:50;4.85;;;4.28;;
8050;SDS011;4068;42.158;24.732;2022-07-22T13:43:17;6.53;;;4.13;;
8050;SDS011;4068;42.158;24.732;2022-07-22T13:45:43;7.82;;;3.92;;
8050;SDS011;4068;42.158;24.732;2022-07-22T13:48:08;5.60;;;3.55;;
8050;SDS011;4068;42.158;24.732;2022-07-22T13:50:34;9.02;;;4.03;;
8050;SDS011;4068;42.158;24.732;2022-07-22T13:52:59;8.02;;;4.03;;
8050;SDS011;4068;42.158;24.732;2022-07-22T13:55:25;6.95;;;4.38;;
8050;SDS011;4068;42.158;24.732;2022-07-22T13:57:51;4.68;;;3.90;;
8050;SDS011;4068;42.158;24.732;2022-07-22T14:00:17;5.22;;;4.40;;
8050;SDS011;4068;42.158;24.732;2022-07-22T14:02:43;6.50;;;3.97;;
8050;SDS011;4068;42.158;24.732;2022-07-22T14:05:09;9.27;;;4.70;;
8050;SDS011;4068;42.158;24.732;2022-07-22T14:07:35;7.05;;;4.32;;
8050;SDS011;4068;42.158;24.732;2022-07-22T14:10:01;4.32;;;3.47;;
8050;SDS011;4068;42.158;24.732;2022-07-22T14:12:27;6.63;;;4.00;;
8050;SDS011;4068;42.158;24.732;2022-07-22T14:14:52;6.70;;;4.40;;
8050;SDS011;4068;42.158;24.732;2022-07-22T14:17:18;5.45;;;4.10;;
8050;SDS011;4068;42.158;24.732;2022-07-22T14:19:43;6.32;;;4.38;;
8050;SDS011;4068;42.158;24.732;2022-07-22T14:22:09;9.32;;;4.63;;
8050;SDS011;4068;42.158;24.732;2022-07-22T14:24:34;9.20;;;4.25;;
8050;SDS011;4068;42.158;24.732;2022-07-22T14:26:59;7.47;;;4.03;;
8050;SDS011;4068;42.158;24.732;2022-07-22T14:29:25;5.20;;;4.13;;
8050;SDS011;4068;42.158;24.732;2022-07-22T14:31:50;9.52;;;4.45;;
8050;SDS011;4068;42.158;24.732;2022-07-22T14:34:16;6.78;;;4.00;;
8050;SDS011;4068;42.158;24.732;2022-07-22T14:36:41;7.47;;;4.53;;
8050;SDS011;4068;42.158;24.732;2022-07-22T14:39:07;6.68;;;4.32;;
8050;SDS011;4068;42.158;24.732;2022-07-22T14:41:33;7.22;;;3.88;;
8050;SDS011;4068;42.158;24.732;2022-07-22T14:43:58;6.07;;;3.95;;
8050;SDS011;4068;42.158;24.732;2022-07-22T14:46:24;6.97;;;3.83;;
8050;SDS011;4068;42.158;24.732;2022-07-22T14:48:49;7.22;;;3.85;;
8050;SDS011;4068;42.158;24.732;2022-07-22T14:51:18;4.38;;;3.75;;
8050;SDS011;4068;42.158;24.732;2022-07-22T14:53:45;5.28;;;3.50;;
8050;SDS011;4068;42.158;24.732;2022-07-22T14:56:10;8.57;;;4.68;;
8050;SDS011;4068;42.158;24.732;2022-07-22T14:58:35;10.95;;;4.75;;
8050;SDS011;4068;42.158;24.732;2022-07-22T15:01:01;9.57;;;4.20;;
8050;SDS011;4068;42.158;24.732;2022-07-22T15:03:26;4.80;;;3.80;;
8050;SDS011;4068;42.158;24.732;2022-07-22T15:05:52;8.02;;;3.78;;
8050;SDS011;4068;42.158;24.732;2022-07-22T15:08:18;9.70;;;3.92;;
8050;SDS011;4068;42.158;24.732;2022-07-22T15:10:43;4.93;;;3.85;;
8050;SDS011;4068;42.158;24.732;2022-07-22T15:13:09;8.75;;;4.10;;
8050;SDS011;4068;42.158;24.732;2022-07-22T15:15:35;9.68;;;4.13;;
8050;SDS011;4068;42.158;24.732;2022-07-22T15:18:00;6.32;;;3.90;;
8050;SDS011;4068;42.158;24.732;2022-07-22T15:20:26;8.60;;;4.20;;